sensor_id;sensor_type;location;lat;lon;timestamp;P1;durP1;ratioP1;P2;durP2;ratioP2
8819;SDS011;4446;50.876;4.736;2024-01-11T07:44:52;15.00;;;6.97;;
8819;SDS011;4446;50.876;4.736;2024-01-11T07:47:19;19.13;;;8.60;;
8819;SDS011;4446;50.876;4.736;2024-01-11T07:49:47;17.63;;;7.43;;
8819;SDS011;4446;50.876;4.736;2024-01-11T07:52:14;17.27;;;8.10;;
8819;SDS011;4446;50.876;4.736;2024-01-11T07:54:41;16.10;;;7.70;;
8819;SDS011;4446;50.876;4.736;2024-01-11T07:57:08;18.20;;;8.57;;
8819;SDS011;4446;50.876;4.736;2024-01-11T07:59:36;15.67;;;7.20;;
8819;SDS011;4446;50.876;4.736;2024-01-11T08:02:04;15.00;;;7.63;;
8819;SDS011;4446;50.876;4.736;2024-01-11T08:04:31;16.03;;;8.30;;
8819;SDS011;4446;50.876;4.736;2024-01-11T08:06:58;23.20;;;10.07;;
8819;SDS011;4446;50.876;4.736;2024-01-11T08:09:27;16.40;;;8.00;;
8819;SDS011;4446;50.876;4.736;2024-01-11T08:11:54;18.17;;;7.20;;
8819;SDS011;4446;50.876;4.736;2024-01-11T08:14:21;22.30;;;9.37;;
8819;SDS011;4446;50.876;4.736;2024-01-11T08:16:51;15.97;;;7.97;;
8819;SDS011;4446;50.876;4.736;2024-01-11T08:19:18;17.50;;;9.10;;
8819;SDS011;4446;50.876;4.736;2024-01-11T08:21:45;20.77;;;8.73;;
8819;SDS011;4446;50.876;4.736;2024-01-11T08:24:12;24.00;;;9.13;;
8819;SDS011;4446;50.876;4.736;2024-01-11T08:26:39;15.70;;;8.30;;
8819;SDS011;4446;50.876;4.736;2024-01-11T08:29:06;19.30;;;8.83;;
8819;SDS011;4446;50.876;4.736;2024-01-11T08:31:34;18.57;;;8.93;;
8819;SDS011;4446;50.876;4.736;2024-01-11T08:34:03;22.50;;;9.80;;
8819;SDS011;4446;50.876;4.736;2024-01-11T08:36:31;19.80;;;9.70;;
8819;SDS011;4446;50.876;4.736;2024-01-11T08:39:00;17.83;;;9.03;;
8819;SDS011;4446;50.876;4.736;2024-01-11T08:41:28;17.93;;;9.00;;
8819;SDS011;4446;50.876;4.736;2024-01-11T08:43:55;21.23;;;8.43;;
8819;SDS011;4446;50.876;4.736;2024-01-11T08:46:25;17.10;;;8.40;;
8819;SDS011;4446;50.876;4.736;2024-01-11T08:48:52;21.57;;;8.60;;
8819;SDS011;4446;50.876;4.736;2024-01-11T08:51:23;18.67;;;8.07;;
8819;SDS011;4446;50.876;4.736;2024-01-11T08:53:50;17.47;;;8.67;;
8819;SDS011;4446;50.876;4.736;2024-01-11T08:56:18;17.90;;;9.40;;
8819;SDS011;4446;50.876;4.736;2024-01-11T08:58:45;16.47;;;8.57;;
8819;SDS011;4446;50.876;4.736;2024-01-11T09:01:13;25.17;;;9.93;;
8819;SDS011;4446;50.876;4.736;2024-01-11T09:03:40;17.20;;;8.80;;
8819;SDS011;4446;50.876;4.736;2024-01-11T09:06:07;20.33;;;9.33;;
8819;SDS011;4446;50.876;4.736;2024-01-11T09:08:36;16.50;;;8.83;;
8819;SDS011;4446;50.876;4.736;2024-01-11T09:11:03;18.37;;;8.90;;
8819;SDS011;4446;50.876;4.736;2024-01-11T09:13:30;19.90;;;9.10;;
8819;SDS011;4446;50.876;4.736;2024-01-11T09:15:57;21.83;;;10.23;;
8819;SDS011;4446;50.876;4.736;2024-01-11T09:18:24;18.03;;;9.83;;
8819;SDS011;4446;50.876;4.736;2024-01-11T09:20:53;17.27;;;8.80;;
8819;SDS011;4446;50.876;4.736;2024-01-11T09:23:21;20.57;;;8.90;;
8819;SDS011;4446;50.876;4.736;2024-01-11T09:25:50;18.70;;;9.07;;
8819;SDS011;4446;50.876;4.736;2024-01-11T09:28:17;24.60;;;9.50;;
8819;SDS011;4446;50.876;4.736;2024-01-11T09:30:44;13.83;;;7.83;;
8819;SDS011;4446;50.876;4.736;2024-01-11T09:33:11;19.80;;;9.07;;
8819;SDS011;4446;50.876;4.736;2024-01-11T09:35:38;19.70;;;9.60;;
8819;SDS011;4446;50.876;4.736;2024-01-11T09:38:05;22.97;;;10.37;;
8819;SDS011;4446;50.876;4.736;2024-01-11T09:40:32;21.93;;;9.70;;
8819;SDS011;4446;50.876;4.736;2024-01-11T09:43:01;19.37;;;8.80;;
8819;SDS011;4446;50.876;4.736;2024-01-11T09:45:30;14.23;;;8.17;;
8819;SDS011;4446;50.876;4.736;2024-01-11T09:47:57;19.67;;;8.97;;
8819;SDS011;4446;50.876;4.736;2024-01-11T09:50:24;21.37;;;9.93;;
8819;SDS011;4446;50.876;4.736;2024-01-11T09:52:51;17.00;;;9.47;;
8819;SDS011;4446;50.876;4.736;2024-01-11T09:55:19;21.23;;;10.90;;
8819;SDS011;4446;50.876;4.736;2024-01-11T09:57:47;22.37;;;11.83;;
8819;SDS011;4446;50.876;4.736;2024-01-11T10:00:18;19.97;;;9.73;;
8819;SDS011;4446;50.876;4.736;2024-01-11T10:02:47;23.67;;;10.20;;
8819;SDS011;4446;50.876;4.736;2024-01-11T10:05:14;21.73;;;10.20;;
8819;SDS011;4446;50.876;4.736;2024-01-11T10:07:44;22.77;;;9.67;;
8819;SDS011;4446;50.876;4.736;2024-01-11T10:10:12;24.53;;;10.37;;
8819;SDS011;4446;50.876;4.736;2024-01-11T10:12:41;23.37;;;11.63;;
8819;SDS011;4446;50.876;4.736;2024-01-11T10:15:08;22.07;;;10.17;;
8819;SDS011;4446;50.876;4.736;2024-01-11T10:17:37;22.97;;;11.27;;
8819;SDS011;4446;50.876;4.736;2024-01-11T10:20:07;24.13;;;10.40;;
8819;SDS011;4446;50.876;4.736;2024-01-11T10:22:35;25.97;;;10.67;;
8819;SDS011;4446;50.876;4.736;2024-01-11T10:25:10;18.50;;;9.73;;
8819;SDS011;4446;50.876;4.736;2024-01-11T10:27:39;23.37;;;11.80;;
8819;SDS011;4446;50.876;4.736;2024-01-11T10:30:08;25.70;;;11.40;;
8819;SDS011;4446;50.876;4.736;2024-01-11T10:32:39;19.37;;;10.13;;
8819;SDS011;4446;50.876;4.736;2024-01-11T10:35:06;23.40;;;10.37;;
8819;SDS011;4446;50.876;4.736;2024-01-11T10:37:35;25.23;;;11.93;;
8819;SDS011;4446;50.876;4.736;2024-01-11T10:40:04;22.77;;;11.57;;
8819;SDS011;4446;50.876;4.736;2024-01-11T10:42:36;22.07;;;10.77;;
8819;SDS011;4446;50.876;4.736;2024-01-11T10:45:09;23.03;;;10.23;;
8819;SDS011;4446;50.876;4.736;2024-01-11T10:47:41;17.87;;;10.10;;
8819;SDS011;4446;50.876;4.736;2024-01-11T10:50:16;28.67;;;11.73;;
8819;SDS011;4446;50.876;4.736;2024-01-11T10:52:48;25.57;;;12.17;;
8819;SDS011;4446;50.876;4.736;2024-01-11T10:55:22;21.83;;;10.90;;
8819;SDS011;4446;50.876;4.736;2024-01-11T10:57:51;20.70;;;10.20;;
8819;SDS011;4446;50.876;4.736;2024-01-11T11:00:19;27.50;;;11.93;;
8819;SDS011;4446;50.876;4.736;2024-01-11T11:02:49;20.67;;;10.27;;
8819;SDS011;4446;50.876;4.736;2024-01-11T11:05:17;22.83;;;10.90;;
8819;SDS011;4446;50.876;4.736;2024-01-11T11:07:47;24.97;;;12.73;;
8819;SDS011;4446;50.876;4.736;2024-01-11T11:10:15;24.23;;;12.10;;
8819;SDS011;4446;50.876;4.736;2024-01-11T11:12:44;25.80;;;13.50;;
8819;SDS011;4446;50.876;4.736;2024-01-11T11:15:12;30.63;;;13.43;;
8819;SDS011;4446;50.876;4.736;2024-01-11T11:17:39;26.60;;;11.97;;
8819;SDS011;4446;50.876;4.736;2024-01-11T11:20:09;27.00;;;13.30;;
8819;SDS011;4446;50.876;4.736;2024-01-11T11:22:39;25.07;;;12.47;;
8819;SDS011;4446;50.876;4.736;2024-01-11T11:25:08;26.77;;;12.47;;
8819;SDS011;4446;50.876;4.736;2024-01-11T11:27:35;23.33;;;12.60;;
8819;SDS011;4446;50.876;4.736;2024-01-11T11:30:03;22.03;;;11.00;;
8819;SDS011;4446;50.876;4.736;2024-01-11T11:32:37;21.97;;;11.43;;
8819;SDS011;4446;50.876;4.736;2024-01-11T11:35:06;23.13;;;12.80;;
8819;SDS011;4446;50.876;4.736;2024-01-11T11:37:35;24.23;;;12.30;;
8819;SDS011;4446;50.876;4.736;2024-01-11T11:40:03;23.07;;;12.20;;
8819;SDS011;4446;50.876;4.736;2024-01-11T11:42:32;28.10;;;12.37;;
8819;SDS011;4446;50.876;4.736;2024-01-11T11:45:00;26.97;;;12.00;;
8819;SDS011;4446;50.876;4.736;2024-01-11T11:47:33;20.55;;;9.82;;
8819;SDS011;4446;50.876;4.736;2024-01-11T11:50:06;23.80;;;11.63;;
8819;SDS011;4446;50.876;4.736;2024-01-11T11:52:36;21.60;;;11.18;;
8819;SDS011;4446;50.876;4.736;2024-01-11T11:55:04;19.10;;;10.40;;
8819;SDS011;4446;50.876;4.736;2024-01-11T11:57:33;21.10;;;10.25;;
8819;SDS011;4446;50.876;4.736;2024-01-11T12:00:01;25.60;;;11.00;;
8819;SDS011;4446;50.876;4.736;2024-01-11T12:02:31;20.38;;;9.15;;
8819;SDS011;4446;50.876;4.736;2024-01-11T12:05:01;25.00;;;10.98;;
8819;SDS011;4446;50.876;4.736;2024-01-11T12:07:29;20.80;;;11.00;;
8819;SDS011;4446;50.876;4.736;2024-01-11T12:09:57;18.57;;;9.23;;
8819;SDS011;4446;50.876;4.736;2024-01-11T12:12:24;22.87;;;11.03;;
8819;SDS011;4446;50.876;4.736;2024-01-11T12:14:52;20.13;;;10.13;;
8819;SDS011;4446;50.876;4.736;2024-01-11T12:17:19;17.02;;;9.85;;
8819;SDS011;4446;50.876;4.736;2024-01-11T12:19:46;17.10;;;8.70;;
8819;SDS011;4446;50.876;4.736;2024-01-11T12:22:14;21.38;;;8.98;;
8819;SDS011;4446;50.876;4.736;2024-01-11T12:24:41;18.50;;;9.10;;
8819;SDS011;4446;50.876;4.736;2024-01-11T12:27:09;20.75;;;9.10;;
8819;SDS011;4446;50.876;4.736;2024-01-11T12:29:38;19.52;;;9.20;;
8819;SDS011;4446;50.876;4.736;2024-01-11T12:32:05;13.23;;;7.55;;
8819;SDS011;4446;50.876;4.736;2024-01-11T12:34:36;16.63;;;7.90;;
8819;SDS011;4446;50.876;4.736;2024-01-11T12:37:05;20.23;;;8.20;;
8819;SDS011;4446;50.876;4.736;2024-01-11T12:39:32;17.45;;;8.50;;
8819;SDS011;4446;50.876;4.736;2024-01-11T12:41:59;16.90;;;8.50;;
8819;SDS011;4446;50.876;4.736;2024-01-11T12:44:28;15.63;;;8.23;;
8819;SDS011;4446;50.876;4.736;2024-01-11T12:46:55;13.77;;;8.27;;
8819;SDS011;4446;50.876;4.736;2024-01-11T12:49:22;19.52;;;8.85;;
8819;SDS011;4446;50.876;4.736;2024-01-11T12:51:49;18.10;;;7.97;;
8819;SDS011;4446;50.876;4.736;2024-01-11T12:54:16;20.15;;;8.23;;
8819;SDS011;4446;50.876;4.736;2024-01-11T12:56:44;17.05;;;7.70;;
8819;SDS011;4446;50.876;4.736;2024-01-11T12:59:11;16.60;;;8.20;;
8819;SDS011;4446;50.876;4.736;2024-01-11T13:01:42;14.73;;;7.97;;
8819;SDS011;4446;50.876;4.736;2024-01-11T13:04:09;16.83;;;7.93;;
8819;SDS011;4446;50.876;4.736;2024-01-11T13:06:37;19.27;;;8.82;;
8819;SDS011;4446;50.876;4.736;2024-01-11T13:09:04;13.25;;;7.65;;
8819;SDS011;4446;50.876;4.736;2024-01-11T13:11:33;12.15;;;7.00;;
8819;SDS011;4446;50.876;4.736;2024-01-11T13:14:00;16.27;;;7.95;;
8819;SDS011;4446;50.876;4.736;2024-01-11T13:16:31;15.05;;;7.40;;
8819;SDS011;4446;50.876;4.736;2024-01-11T13:19:00;14.30;;;6.97;;
8819;SDS011;4446;50.876;4.736;2024-01-11T13:21:27;16.38;;;7.32;;
8819;SDS011;4446;50.876;4.736;2024-01-11T13:23:55;14.77;;;7.90;;
8819;SDS011;4446;50.876;4.736;2024-01-11T13:26:22;18.00;;;7.13;;
8819;SDS011;4446;50.876;4.736;2024-01-11T13:28:49;14.35;;;6.75;;
8819;SDS011;4446;50.876;4.736;2024-01-11T13:31:17;17.58;;;8.70;;
8819;SDS011;4446;50.876;4.736;2024-01-11T13:33:45;16.83;;;7.38;;
8819;SDS011;4446;50.876;4.736;2024-01-11T13:36:13;13.40;;;7.43;;
8819;SDS011;4446;50.876;4.736;2024-01-11T13:38:40;14.93;;;7.20;;
8819;SDS011;4446;50.876;4.736;2024-01-11T13:41:07;14.60;;;7.88;;
8819;SDS011;4446;50.876;4.736;2024-01-11T13:43:34;12.90;;;6.75;;
8819;SDS011;4446;50.876;4.736;2024-01-11T13:46:01;18.40;;;7.85;;
8819;SDS011;4446;50.876;4.736;2024-01-11T13:48:29;14.07;;;7.53;;
8819;SDS011;4446;50.876;4.736;2024-01-11T13:50:57;13.30;;;6.90;;
8819;SDS011;4446;50.876;4.736;2024-01-11T13:53:26;15.45;;;6.90;;
8819;SDS011;4446;50.876;4.736;2024-01-11T13:55:53;13.85;;;7.47;;
8819;SDS011;4446;50.876;4.736;2024-01-11T13:58:20;13.65;;;7.60;;
8819;SDS011;4446;50.876;4.736;2024-01-11T14:00:48;17.17;;;7.95;;
8819;SDS011;4446;50.876;4.736;2024-01-11T14:03:15;12.20;;;6.78;;
8819;SDS011;4446;50.876;4.736;2024-01-11T14:05:42;12.20;;;6.90;;
8819;SDS011;4446;50.876;4.736;2024-01-11T14:08:09;14.05;;;6.70;;
8819;SDS011;4446;50.876;4.736;2024-01-11T14:10:38;14.23;;;8.15;;
8819;SDS011;4446;50.876;4.736;2024-01-11T14:13:05;15.90;;;7.47;;
8819;SDS011;4446;50.876;4.736;2024-01-11T14:15:32;11.40;;;7.05;;
8819;SDS011;4446;50.876;4.736;2024-01-11T14:17:59;11.60;;;5.82;;
8819;SDS011;4446;50.876;4.736;2024-01-11T14:20:26;15.20;;;7.60;;
8819;SDS011;4446;50.876;4.736;2024-01-11T14:22:53;16.55;;;7.90;;
8819;SDS011;4446;50.876;4.736;2024-01-11T14:25:21;15.48;;;7.60;;
8819;SDS011;4446;50.876;4.736;2024-01-11T14:27:51;13.38;;;7.05;;
8819;SDS011;4446;50.876;4.736;2024-01-11T14:30:19;15.00;;;7.88;;
8819;SDS011;4446;50.876;4.736;2024-01-11T14:32:47;14.52;;;6.78;;
8819;SDS011;4446;50.876;4.736;2024-01-11T14:35:14;13.38;;;7.25;;
8819;SDS011;4446;50.876;4.736;2024-01-11T14:37:42;12.32;;;6.45;;
8819;SDS011;4446;50.876;4.736;2024-01-11T14:40:10;12.80;;;6.60;;
8819;SDS011;4446;50.876;4.736;2024-01-11T14:42:38;13.18;;;7.00;;
8819;SDS011;4446;50.876;4.736;2024-01-11T14:45:07;15.75;;;6.15;;
8819;SDS011;4446;50.876;4.736;2024-01-11T14:47:34;12.90;;;6.68;;
8819;SDS011;4446;50.876;4.736;2024-01-11T14:50:02;12.93;;;7.03;;
8819;SDS011;4446;50.876;4.736;2024-01-11T14:52:29;12.23;;;6.43;;
8819;SDS011;4446;50.876;4.736;2024-01-11T14:54:57;14.27;;;7.57;;
8819;SDS011;4446;50.876;4.736;2024-01-11T14:57:24;14.77;;;7.85;;
8819;SDS011;4446;50.876;4.736;2024-01-11T14:59:51;12.25;;;6.82;;
8819;SDS011;4446;50.876;4.736;2024-01-11T15:02:19;15.52;;;7.75;;
8819;SDS011;4446;50.876;4.736;2024-01-11T15:04:46;15.13;;;7.28;;
8819;SDS011;4446;50.876;4.736;2024-01-11T15:07:13;15.27;;;6.78;;
8819;SDS011;4446;50.876;4.736;2024-01-11T15:09:40;15.95;;;7.40;;
8819;SDS011;4446;50.876;4.736;2024-01-11T15:12:08;13.02;;;6.90;;
8819;SDS011;4446;50.876;4.736;2024-01-11T15:14:35;13.30;;;6.70;;
8819;SDS011;4446;50.876;4.736;2024-01-11T15:17:02;13.93;;;7.47;;
8819;SDS011;4446;50.876;4.736;2024-01-11T15:19:31;13.82;;;6.97;;
8819;SDS011;4446;50.876;4.736;2024-01-11T15:21:58;12.63;;;6.28;;
8819;SDS011;4446;50.876;4.736;2024-01-11T15:24:25;15.73;;;8.10;;
8819;SDS011;4446;50.876;4.736;2024-01-11T15:26:53;14.82;;;7.30;;
8819;SDS011;4446;50.876;4.736;2024-01-11T15:29:20;14.55;;;7.22;;
8819;SDS011;4446;50.876;4.736;2024-01-11T15:31:47;16.05;;;7.43;;
8819;SDS011;4446;50.876;4.736;2024-01-11T15:34:15;15.05;;;7.25;;
8819;SDS011;4446;50.876;4.736;2024-01-11T15:36:43;14.70;;;7.70;;
8819;SDS011;4446;50.876;4.736;2024-01-11T15:39:11;14.07;;;7.00;;
8819;SDS011;4446;50.876;4.736;2024-01-11T15:41:38;12.05;;;6.40;;
8819;SDS011;4446;50.876;4.736;2024-01-11T15:44:06;15.00;;;7.70;;
8819;SDS011;4446;50.876;4.736;2024-01-11T15:46:33;16.67;;;7.70;;
8819;SDS011;4446;50.876;4.736;2024-01-11T15:49:01;15.48;;;7.22;;
8819;SDS011;4446;50.876;4.736;2024-01-11T15:51:28;16.50;;;7.80;;
8819;SDS011;4446;50.876;4.736;2024-01-11T15:53:56;15.77;;;7.43;;
8819;SDS011;4446;50.876;4.736;2024-01-11T15:56:23;16.77;;;7.85;;
8819;SDS011;4446;50.876;4.736;2024-01-11T15:58:50;14.75;;;7.47;;
8819;SDS011;4446;50.876;4.736;2024-01-11T16:01:17;14.10;;;7.57;;
8819;SDS011;4446;50.876;4.736;2024-01-11T16:03:45;21.45;;;7.72;;
8819;SDS011;4446;50.876;4.736;2024-01-11T16:06:13;15.15;;;6.95;;
8819;SDS011;4446;50.876;4.736;2024-01-11T16:08:40;15.45;;;7.28;;
8819;SDS011;4446;50.876;4.736;2024-01-11T16:11:09;14.57;;;6.97;;
8819;SDS011;4446;50.876;4.736;2024-01-11T16:13:36;13.75;;;6.88;;
8819;SDS011;4446;50.876;4.736;2024-01-11T16:16:04;19.42;;;8.30;;
8819;SDS011;4446;50.876;4.736;2024-01-11T16:18:33;17.45;;;7.38;;
8819;SDS011;4446;50.876;4.736;2024-01-11T16:21:02;12.32;;;7.32;;
8819;SDS011;4446;50.876;4.736;2024-01-11T16:23:30;15.88;;;6.35;;
8819;SDS011;4446;50.876;4.736;2024-01-11T16:25:58;12.07;;;6.70;;
8819;SDS011;4446;50.876;4.736;2024-01-11T16:28:27;15.75;;;7.25;;
8819;SDS011;4446;50.876;4.736;2024-01-11T16:30:54;13.90;;;6.78;;
8819;SDS011;4446;50.876;4.736;2024-01-11T16:33:22;16.40;;;6.90;;
8819;SDS011;4446;50.876;4.736;2024-01-11T16:35:50;10.75;;;5.88;;
8819;SDS011;4446;50.876;4.736;2024-01-11T16:38:17;14.45;;;7.10;;
8819;SDS011;4446;50.876;4.736;2024-01-11T16:40:44;18.73;;;6.85;;
8819;SDS011;4446;50.876;4.736;2024-01-11T16:43:11;12.82;;;6.63;;
8819;SDS011;4446;50.876;4.736;2024-01-11T16:45:40;14.30;;;6.88;;
8819;SDS011;4446;50.876;4.736;2024-01-11T16:48:07;14.10;;;6.40;;
8819;SDS011;4446;50.876;4.736;2024-01-11T16:50:35;14.35;;;6.15;;
8819;SDS011;4446;50.876;4.736;2024-01-11T16:53:02;12.45;;;5.55;;
8819;SDS011;4446;50.876;4.736;2024-01-11T16:55:30;12.60;;;6.20;;
8819;SDS011;4446;50.876;4.736;2024-01-11T16:57:57;10.18;;;6.15;;
8819;SDS011;4446;50.876;4.736;2024-01-11T17:00:24;11.55;;;5.65;;
8819;SDS011;4446;50.876;4.736;2024-01-11T17:02:53;9.88;;;6.18;;
8819;SDS011;4446;50.876;4.736;2024-01-11T17:05:20;10.27;;;5.40;;
8819;SDS011;4446;50.876;4.736;2024-01-11T17:07:47;11.02;;;5.45;;
8819;SDS011;4446;50.876;4.736;2024-01-11T17:10:14;13.45;;;5.95;;
8819;SDS011;4446;50.876;4.736;2024-01-11T17:12:41;10.68;;;5.05;;
8819;SDS011;4446;50.876;4.736;2024-01-11T17:15:08;11.27;;;5.80;;
8819;SDS011;4446;50.876;4.736;2024-01-11T17:17:36;11.88;;;5.35;;
8819;SDS011;4446;50.876;4.736;2024-01-11T17:20:05;9.32;;;5.20;;
8819;SDS011;4446;50.876;4.736;2024-01-11T17:22:34;14.00;;;5.78;;
8819;SDS011;4446;50.876;4.736;2024-01-11T17:25:01;12.23;;;5.00;;
8819;SDS011;4446;50.876;4.736;2024-01-11T17:27:28;13.05;;;5.45;;
8819;SDS011;4446;50.876;4.736;2024-01-11T17:29:55;13.65;;;5.78;;
8819;SDS011;4446;50.876;4.736;2024-01-11T17:32:22;14.00;;;6.40;;
8819;SDS011;4446;50.876;4.736;2024-01-11T17:34:49;13.00;;;5.47;;
8819;SDS011;4446;50.876;4.736;2024-01-11T17:37:19;10.32;;;5.18;;
8819;SDS011;4446;50.876;4.736;2024-01-11T17:39:46;11.27;;;4.90;;
8819;SDS011;4446;50.876;4.736;2024-01-11T17:42:13;10.13;;;5.35;;
8819;SDS011;4446;50.876;4.736;2024-01-11T17:44:40;10.02;;;5.43;;
8819;SDS011;4446;50.876;4.736;2024-01-11T17:47:07;9.82;;;5.05;;
8819;SDS011;4446;50.876;4.736;2024-01-11T17:49:34;12.13;;;6.40;;
8819;SDS011;4446;50.876;4.736;2024-01-11T17:52:02;12.85;;;5.70;;
8819;SDS011;4446;50.876;4.736;2024-01-11T17:54:30;12.07;;;6.28;;
8819;SDS011;4446;50.876;4.736;2024-01-11T17:56:57;12.85;;;5.53;;
8819;SDS011;4446;50.876;4.736;2024-01-11T17:59:24;11.98;;;5.72;;
8819;SDS011;4446;50.876;4.736;2024-01-11T18:01:52;11.73;;;6.00;;
8819;SDS011;4446;50.876;4.736;2024-01-11T18:04:21;13.93;;;5.72;;
8819;SDS011;4446;50.876;4.736;2024-01-11T18:06:48;10.48;;;5.45;;
8819;SDS011;4446;50.876;4.736;2024-01-11T18:09:15;9.65;;;5.85;;
8819;SDS011;4446;50.876;4.736;2024-01-11T18:11:44;14.35;;;5.93;;
8819;SDS011;4446;50.876;4.736;2024-01-11T18:14:13;10.63;;;5.60;;
8819;SDS011;4446;50.876;4.736;2024-01-11T18:16:40;11.63;;;4.95;;
8819;SDS011;4446;50.876;4.736;2024-01-11T18:19:07;10.82;;;4.80;;
8819;SDS011;4446;50.876;4.736;2024-01-11T18:21:37;11.48;;;5.80;;
8819;SDS011;4446;50.876;4.736;2024-01-11T18:24:04;13.38;;;6.38;;
8819;SDS011;4446;50.876;4.736;2024-01-11T18:26:31;13.88;;;7.47;;
8819;SDS011;4446;50.876;4.736;2024-01-11T18:29:00;14.68;;;6.00;;
8819;SDS011;4446;50.876;4.736;2024-01-11T18:31:26;11.93;;;6.30;;
8819;SDS011;4446;50.876;4.736;2024-01-11T18:33:53;18.10;;;7.30;;
8819;SDS011;4446;50.876;4.736;2024-01-11T18:36:23;12.02;;;5.63;;
8819;SDS011;4446;50.876;4.736;2024-01-11T18:38:49;12.75;;;6.53;;
8819;SDS011;4446;50.876;4.736;2024-01-11T18:41:17;19.73;;;6.65;;
8819;SDS011;4446;50.876;4.736;2024-01-11T18:43:45;11.25;;;6.65;;
8819;SDS011;4446;50.876;4.736;2024-01-11T18:46:14;11.65;;;6.28;;
8819;SDS011;4446;50.876;4.736;2024-01-11T18:48:41;16.25;;;7.10;;
8819;SDS011;4446;50.876;4.736;2024-01-11T18:51:08;10.68;;;6.45;;
8819;SDS011;4446;50.876;4.736;2024-01-11T18:53:35;16.50;;;7.30;;
8819;SDS011;4446;50.876;4.736;2024-01-11T18:56:11;13.85;;;6.80;;
8819;SDS011;4446;50.876;4.736;2024-01-11T18:58:38;11.57;;;6.47;;
8819;SDS011;4446;50.876;4.736;2024-01-11T19:01:05;13.35;;;6.57;;
8819;SDS011;4446;50.876;4.736;2024-01-11T19:03:35;14.55;;;6.97;;
8819;SDS011;4446;50.876;4.736;2024-01-11T19:06:04;13.13;;;6.90;;
8819;SDS011;4446;50.876;4.736;2024-01-11T19:08:31;17.13;;;7.78;;
8819;SDS011;4446;50.876;4.736;2024-01-11T19:10:58;24.20;;;10.15;;
8819;SDS011;4446;50.876;4.736;2024-01-11T19:13:27;21.63;;;9.73;;
8819;SDS011;4446;50.876;4.736;2024-01-11T19:15:54;17.15;;;7.80;;
8819;SDS011;4446;50.876;4.736;2024-01-11T19:18:22;16.42;;;7.47;;
8819;SDS011;4446;50.876;4.736;2024-01-11T19:20:50;13.70;;;6.13;;
8819;SDS011;4446;50.876;4.736;2024-01-11T19:23:19;12.63;;;7.20;;
8819;SDS011;4446;50.876;4.736;2024-01-11T19:25:46;13.35;;;6.65;;
8819;SDS011;4446;50.876;4.736;2024-01-11T19:28:13;12.07;;;6.53;;
8819;SDS011;4446;50.876;4.736;2024-01-11T19:30:40;13.25;;;6.57;;
8819;SDS011;4446;50.876;4.736;2024-01-11T19:33:07;14.52;;;6.97;;
8819;SDS011;4446;50.876;4.736;2024-01-11T19:35:37;14.55;;;7.18;;
8819;SDS011;4446;50.876;4.736;2024-01-11T19:38:06;11.32;;;6.90;;
8819;SDS011;4446;50.876;4.736;2024-01-11T19:40:33;11.27;;;5.93;;
8819;SDS011;4446;50.876;4.736;2024-01-11T19:43:01;10.57;;;5.47;;
8819;SDS011;4446;50.876;4.736;2024-01-11T19:45:28;15.02;;;6.55;;
8819;SDS011;4446;50.876;4.736;2024-01-11T19:47:55;11.45;;;6.13;;
8819;SDS011;4446;50.876;4.736;2024-01-11T19:50:22;15.35;;;7.03;;
8819;SDS011;4446;50.876;4.736;2024-01-11T19:52:49;10.23;;;6.07;;
8819;SDS011;4446;50.876;4.736;2024-01-11T19:55:19;9.93;;;5.75;;
8819;SDS011;4446;50.876;4.736;2024-01-11T19:57:46;12.70;;;6.70;;
8819;SDS011;4446;50.876;4.736;2024-01-11T20:00:14;13.23;;;6.20;;
8819;SDS011;4446;50.876;4.736;2024-01-11T20:02:41;11.27;;;5.93;;
8819;SDS011;4446;50.876;4.736;2024-01-11T20:05:08;12.48;;;6.10;;
8819;SDS011;4446;50.876;4.736;2024-01-11T20:07:35;9.63;;;6.00;;
8819;SDS011;4446;50.876;4.736;2024-01-11T20:10:03;13.02;;;6.68;;
8819;SDS011;4446;50.876;4.736;2024-01-11T20:12:31;13.15;;;7.45;;
8819;SDS011;4446;50.876;4.736;2024-01-11T20:14:59;11.52;;;6.32;;
8819;SDS011;4446;50.876;4.736;2024-01-11T20:17:27;11.52;;;5.95;;
8819;SDS011;4446;50.876;4.736;2024-01-11T20:19:54;11.57;;;6.18;;
8819;SDS011;4446;50.876;4.736;2024-01-11T20:22:22;9.63;;;5.57;;
8819;SDS011;4446;50.876;4.736;2024-01-11T20:24:49;11.70;;;5.63;;
8819;SDS011;4446;50.876;4.736;2024-01-11T20:27:16;12.27;;;6.40;;
8819;SDS011;4446;50.876;4.736;2024-01-11T20:29:44;12.95;;;7.18;;
8819;SDS011;4446;50.876;4.736;2024-01-11T20:32:11;13.07;;;6.03;;
8819;SDS011;4446;50.876;4.736;2024-01-11T20:34:38;14.43;;;7.07;;
8819;SDS011;4446;50.876;4.736;2024-01-11T20:37:05;12.45;;;6.60;;
8819;SDS011;4446;50.876;4.736;2024-01-11T20:39:32;14.75;;;7.75;;
8819;SDS011;4446;50.876;4.736;2024-01-11T20:41:59;17.48;;;8.82;;
8819;SDS011;4446;50.876;4.736;2024-01-11T20:44:26;13.35;;;7.32;;
8819;SDS011;4446;50.876;4.736;2024-01-11T20:46:55;13.43;;;7.40;;
8819;SDS011;4446;50.876;4.736;2024-01-11T20:49:22;16.00;;;7.90;;
8819;SDS011;4446;50.876;4.736;2024-01-11T20:51:49;14.90;;;8.05;;
8819;SDS011;4446;50.876;4.736;2024-01-11T20:54:18;15.45;;;8.05;;
8819;SDS011;4446;50.876;4.736;2024-01-11T20:56:45;15.82;;;8.10;;
8819;SDS011;4446;50.876;4.736;2024-01-11T20:59:12;17.02;;;8.07;;
8819;SDS011;4446;50.876;4.736;2024-01-11T21:01:38;14.45;;;7.22;;
8819;SDS011;4446;50.876;4.736;2024-01-11T21:04:07;17.15;;;7.72;;
8819;SDS011;4446;50.876;4.736;2024-01-11T21:06:34;13.38;;;7.35;;
8819;SDS011;4446;50.876;4.736;2024-01-11T21:09:01;16.27;;;8.23;;
8819;SDS011;4446;50.876;4.736;2024-01-11T21:11:28;19.40;;;9.85;;
8819;SDS011;4446;50.876;4.736;2024-01-11T21:13:55;15.02;;;8.23;;
8819;SDS011;4446;50.876;4.736;2024-01-11T21:16:22;15.80;;;8.27;;
8819;SDS011;4446;50.876;4.736;2024-01-11T21:18:49;15.68;;;7.57;;
8819;SDS011;4446;50.876;4.736;2024-01-11T21:21:20;15.18;;;7.85;;
8819;SDS011;4446;50.876;4.736;2024-01-11T21:23:48;14.60;;;7.25;;
8819;SDS011;4446;50.876;4.736;2024-01-11T21:26:21;14.63;;;7.78;;
8819;SDS011;4446;50.876;4.736;2024-01-11T21:28:49;14.00;;;7.55;;
8819;SDS011;4446;50.876;4.736;2024-01-11T21:31:19;16.08;;;7.63;;
8819;SDS011;4446;50.876;4.736;2024-01-11T21:33:47;14.77;;;7.72;;
8819;SDS011;4446;50.876;4.736;2024-01-11T21:36:15;14.00;;;7.65;;
8819;SDS011;4446;50.876;4.736;2024-01-11T21:38:49;15.65;;;7.80;;
8819;SDS011;4446;50.876;4.736;2024-01-11T21:41:16;16.77;;;7.72;;
8819;SDS011;4446;50.876;4.736;2024-01-11T21:43:43;15.23;;;7.72;;
8819;SDS011;4446;50.876;4.736;2024-01-11T21:46:11;16.85;;;8.68;;
8819;SDS011;4446;50.876;4.736;2024-01-11T21:48:38;18.25;;;7.88;;
8819;SDS011;4446;50.876;4.736;2024-01-11T21:51:05;14.93;;;8.30;;
8819;SDS011;4446;50.876;4.736;2024-01-11T21:53:32;17.92;;;7.80;;
8819;SDS011;4446;50.876;4.736;2024-01-11T21:56:02;14.15;;;7.95;;
8819;SDS011;4446;50.876;4.736;2024-01-11T21:58:29;17.15;;;7.88;;
8819;SDS011;4446;50.876;4.736;2024-01-11T22:00:56;16.00;;;7.45;;
8819;SDS011;4446;50.876;4.736;2024-01-11T22:03:23;14.00;;;7.00;;
8819;SDS011;4446;50.876;4.736;2024-01-11T22:05:51;13.30;;;7.10;;
8819;SDS011;4446;50.876;4.736;2024-01-11T22:08:19;12.73;;;6.78;;
8819;SDS011;4446;50.876;4.736;2024-01-11T22:10:46;15.10;;;7.68;;
8819;SDS011;4446;50.876;4.736;2024-01-11T22:13:16;16.88;;;7.93;;
8819;SDS011;4446;50.876;4.736;2024-01-11T22:15:43;13.68;;;6.63;;
8819;SDS011;4446;50.876;4.736;2024-01-11T22:18:10;13.05;;;7.68;;
8819;SDS011;4446;50.876;4.736;2024-01-11T22:20:37;15.50;;;7.70;;
8819;SDS011;4446;50.876;4.736;2024-01-11T22:23:05;17.88;;;8.05;;
8819;SDS011;4446;50.876;4.736;2024-01-11T22:25:32;19.45;;;8.25;;
8819;SDS011;4446;50.876;4.736;2024-01-11T22:28:00;16.40;;;8.18;;
8819;SDS011;4446;50.876;4.736;2024-01-11T22:30:28;16.60;;;8.27;;
8819;SDS011;4446;50.876;4.736;2024-01-11T22:32:55;15.30;;;8.05;;
8819;SDS011;4446;50.876;4.736;2024-01-11T22:35:22;18.38;;;8.70;;
8819;SDS011;4446;50.876;4.736;2024-01-11T22:37:49;14.90;;;8.48;;
8819;SDS011;4446;50.876;4.736;2024-01-11T22:40:16;16.73;;;7.85;;
8819;SDS011;4446;50.876;4.736;2024-01-11T22:42:43;18.08;;;8.38;;
8819;SDS011;4446;50.876;4.736;2024-01-11T22:45:11;15.85;;;7.22;;
8819;SDS011;4446;50.876;4.736;2024-01-11T22:47:39;17.63;;;8.25;;